KZR721 UAAA-UACC
Flight info
| Callsign | KZR721 |
|---|---|
| Flight time | 1h 24m |
| Altitude | 38000 |
| Route | ETEDA1B ETEDA W333 BANOS BANOS1G |
| Aircraft | A20N/M-L/S |
Departure
| Time | 2026-04-22 15:55 |
|---|---|
| Airport | Almaty International Airport (UAAA) |
Arrival
| Time | 2026-04-22 17:19 |
|---|---|
| Airport | Nursultan Nazarbayev International Airport (UACC) |
| Time | Latitude | Longitude | Altitude | Speed | Heading |
|---|---|---|---|---|---|
| 2026-04-22 15:24 | 43.34681 | 77.01304 | 2229 ft | 0 kts | 246° |
| 2026-04-22 15:47 | 43.34683 | 77.01311 | 2229 ft | 4 kts | 246° |
| 2026-04-22 15:47 | 43.34695 | 77.01344 | 2223 ft | 4 kts | 240° |
| 2026-04-22 15:47 | 43.34709 | 77.01376 | 2223 ft | 4 kts | 230° |
| 2026-04-22 15:48 | 43.34728 | 77.01398 | 2225 ft | 4 kts | 189° |
| 2026-04-22 15:48 | 43.34739 | 77.01399 | 2226 ft | 1 kts | 151° |
| 2026-04-22 15:51 | 43.34733 | 77.01404 | 2224 ft | 4 kts | 151° |
| 2026-04-22 15:51 | 43.34698 | 77.01428 | 2229 ft | 5 kts | 157° |
| 2026-04-22 15:51 | 43.34654 | 77.01454 | 2227 ft | 9 kts | 158° |
| 2026-04-22 15:51 | 43.34598 | 77.01466 | 2227 ft | 7 kts | 176° |
| 2026-04-22 15:52 | 43.34540 | 77.01491 | 2227 ft | 9 kts | 154° |
| 2026-04-22 15:52 | 43.34472 | 77.01535 | 2226 ft | 11 kts | 156° |
| 2026-04-22 15:52 | 43.34406 | 77.01576 | 2228 ft | 11 kts | 155° |
| 2026-04-22 15:52 | 43.34360 | 77.01605 | 2229 ft | 1 kts | 155° |
| 2026-04-22 15:53 | 43.34342 | 77.01617 | 2227 ft | 5 kts | 155° |
| 2026-04-22 15:53 | 43.34299 | 77.01644 | 2228 ft | 9 kts | 155° |
| 2026-04-22 15:53 | 43.34235 | 77.01685 | 2230 ft | 12 kts | 155° |
| 2026-04-22 15:53 | 43.34168 | 77.01727 | 2227 ft | 8 kts | 155° |
| 2026-04-22 15:54 | 43.34136 | 77.01766 | 2226 ft | 3 kts | 88° |
| 2026-04-22 15:54 | 43.34156 | 77.01810 | 2226 ft | 8 kts | 57° |
| 2026-04-22 15:54 | 43.34300 | 77.02100 | 2225 ft | 70 kts | 56° |
| 2026-04-22 15:54 | 43.34689 | 77.02885 | 2223 ft | 126 kts | 56° |
| 2026-04-22 15:55 | 43.35269 | 77.04054 | 2224 ft | 168 kts | 56° |
| 2026-04-22 15:55 | 43.35931 | 77.05375 | 2721 ft | 167 kts | 56° |
| 2026-04-22 15:55 | 43.36590 | 77.06691 | 3274 ft | 168 kts | 57° |
| 2026-04-22 15:55 | 43.37270 | 77.08019 | 3801 ft | 171 kts | 54° |
| 2026-04-22 15:56 | 43.37987 | 77.09358 | 4253 ft | 179 kts | 55° |
| 2026-04-22 15:56 | 43.38725 | 77.10809 | 4654 ft | 192 kts | 56° |
| 2026-04-22 15:56 | 43.39484 | 77.12392 | 5132 ft | 204 kts | 58° |
| 2026-04-22 15:56 | 43.40325 | 77.14089 | 5551 ft | 225 kts | 56° |
| 2026-04-22 15:57 | 43.41373 | 77.15823 | 5949 ft | 249 kts | 39° |
| 2026-04-22 15:57 | 43.43007 | 77.16854 | 6427 ft | 273 kts | 11° |
| 2026-04-22 15:57 | 43.44924 | 77.16718 | 7169 ft | 282 kts | 343° |
| 2026-04-22 15:57 | 43.46621 | 77.15457 | 8103 ft | 283 kts | 321° |
| 2026-04-22 15:58 | 43.48130 | 77.13700 | 9050 ft | 284 kts | 318° |
| 2026-04-22 15:58 | 43.49655 | 77.11980 | 10078 ft | 284 kts | 321° |
| 2026-04-22 15:58 | 43.51308 | 77.10355 | 10661 ft | 303 kts | 324° |
| 2026-04-22 15:58 | 43.53133 | 77.08774 | 11000 ft | 326 kts | 327° |
| 2026-04-22 15:59 | 43.55158 | 77.07152 | 11548 ft | 340 kts | 328° |
| 2026-04-22 15:59 | 43.57231 | 77.05544 | 12421 ft | 343 kts | 328° |
| 2026-04-22 15:59 | 43.59326 | 77.03926 | 13289 ft | 347 kts | 328° |
| 2026-04-22 15:59 | 43.61450 | 77.02279 | 14092 ft | 351 kts | 328° |
| 2026-04-22 16:00 | 43.63582 | 77.00617 | 14881 ft | 353 kts | 327° |
| 2026-04-22 16:00 | 43.65731 | 76.98936 | 15664 ft | 356 kts | 327° |
| 2026-04-22 16:00 | 43.67898 | 76.97236 | 16424 ft | 359 kts | 327° |
| 2026-04-22 16:00 | 43.70080 | 76.95522 | 17173 ft | 363 kts | 327° |
| 2026-04-22 16:01 | 43.72282 | 76.93792 | 17939 ft | 365 kts | 327° |
| 2026-04-22 16:01 | 43.74505 | 76.92043 | 18614 ft | 368 kts | 327° |
| 2026-04-22 16:01 | 43.76739 | 76.90285 | 19274 ft | 371 kts | 326° |
| 2026-04-22 16:01 | 43.78988 | 76.88512 | 19939 ft | 373 kts | 326° |
| 2026-04-22 16:02 | 43.81250 | 76.86729 | 20580 ft | 376 kts | 326° |
| 2026-04-22 16:02 | 43.83521 | 76.84936 | 21224 ft | 378 kts | 326° |
| 2026-04-22 16:02 | 43.85827 | 76.83114 | 21825 ft | 382 kts | 326° |
| 2026-04-22 16:02 | 43.88115 | 76.81303 | 22440 ft | 385 kts | 326° |
| 2026-04-22 16:03 | 43.90448 | 76.79456 | 23052 ft | 388 kts | 326° |
| 2026-04-22 16:03 | 43.92804 | 76.77589 | 23600 ft | 392 kts | 326° |
| 2026-04-22 16:03 | 43.95177 | 76.75707 | 24109 ft | 395 kts | 326° |
| 2026-04-22 16:03 | 43.97571 | 76.73807 | 24599 ft | 397 kts | 325° |
| 2026-04-22 16:04 | 43.99986 | 76.71890 | 25091 ft | 400 kts | 325° |
| 2026-04-22 16:04 | 44.02411 | 76.69962 | 25563 ft | 403 kts | 325° |
| 2026-04-22 16:04 | 44.04853 | 76.68018 | 26030 ft | 406 kts | 324° |
| 2026-04-22 16:04 | 44.07311 | 76.66059 | 26481 ft | 409 kts | 324° |
| 2026-04-22 16:05 | 44.09788 | 76.64084 | 26928 ft | 412 kts | 324° |
| 2026-04-22 16:05 | 44.12284 | 76.62096 | 27390 ft | 415 kts | 325° |
| 2026-04-22 16:05 | 44.14906 | 76.60338 | 27802 ft | 423 kts | 332° |
| 2026-04-22 16:05 | 44.17724 | 76.58987 | 28217 ft | 431 kts | 338° |
| 2026-04-22 16:06 | 44.20664 | 76.57992 | 28617 ft | 436 kts | 340° |
| 2026-04-22 16:06 | 44.23616 | 76.57012 | 29027 ft | 438 kts | 340° |
| 2026-04-22 16:06 | 44.26546 | 76.56027 | 29391 ft | 440 kts | 339° |
| 2026-04-22 16:06 | 44.29533 | 76.55022 | 29770 ft | 442 kts | 339° |
| 2026-04-22 16:07 | 44.32531 | 76.54003 | 30123 ft | 443 kts | 338° |
| 2026-04-22 16:07 | 44.35446 | 76.52676 | 30476 ft | 438 kts | 331° |
| 2026-04-22 16:07 | 44.38250 | 76.51032 | 30836 ft | 438 kts | 330° |
| 2026-04-22 16:07 | 44.41061 | 76.49386 | 31261 ft | 437 kts | 330° |
| 2026-04-22 16:08 | 44.43874 | 76.47753 | 31744 ft | 436 kts | 329° |
| 2026-04-22 16:08 | 44.46669 | 76.46128 | 32245 ft | 433 kts | 329° |
| 2026-04-22 16:08 | 44.49440 | 76.44513 | 32716 ft | 431 kts | 329° |
| 2026-04-22 16:08 | 44.52202 | 76.42897 | 33178 ft | 428 kts | 329° |
| 2026-04-22 16:09 | 44.54944 | 76.41290 | 33635 ft | 426 kts | 328° |
| 2026-04-22 16:09 | 44.57671 | 76.39689 | 34050 ft | 424 kts | 328° |
| 2026-04-22 16:09 | 44.60385 | 76.38093 | 34409 ft | 422 kts | 328° |
| 2026-04-22 16:09 | 44.63093 | 76.36498 | 34740 ft | 421 kts | 328° |
| 2026-04-22 16:10 | 44.65757 | 76.34928 | 35062 ft | 420 kts | 328° |
| 2026-04-22 16:10 | 44.68449 | 76.33340 | 35388 ft | 418 kts | 328° |
| 2026-04-22 16:10 | 44.70260 | 76.32271 | 35596 ft | 418 kts | 328° |
| 2026-04-22 16:10 | 44.73804 | 76.30178 | 35989 ft | 417 kts | 328° |
| 2026-04-22 16:11 | 44.76474 | 76.28598 | 36281 ft | 416 kts | 328° |
| 2026-04-22 16:11 | 44.79135 | 76.27023 | 36570 ft | 414 kts | 328° |
| 2026-04-22 16:11 | 44.81792 | 76.25449 | 36845 ft | 413 kts | 328° |
| 2026-04-22 16:11 | 44.84438 | 76.23878 | 37105 ft | 413 kts | 328° |
| 2026-04-22 16:12 | 44.87085 | 76.22306 | 37355 ft | 412 kts | 328° |
| 2026-04-22 16:12 | 44.89728 | 76.20734 | 37600 ft | 411 kts | 328° |
| 2026-04-22 16:12 | 44.92335 | 76.19182 | 37779 ft | 411 kts | 328° |
| 2026-04-22 16:12 | 44.94970 | 76.17611 | 37801 ft | 410 kts | 328° |
| 2026-04-22 16:13 | 45.00220 | 76.14479 | 37801 ft | 409 kts | 328° |
| 2026-04-22 16:13 | 45.05464 | 76.11342 | 37807 ft | 409 kts | 327° |
| 2026-04-22 16:14 | 45.10711 | 76.08198 | 37799 ft | 410 kts | 328° |
| 2026-04-22 16:14 | 45.15966 | 76.05045 | 37805 ft | 410 kts | 328° |
| 2026-04-22 16:15 | 45.21200 | 76.01897 | 37805 ft | 410 kts | 328° |
| 2026-04-22 16:15 | 45.26460 | 75.98727 | 37803 ft | 411 kts | 328° |
| 2026-04-22 16:16 | 45.31691 | 75.95569 | 37805 ft | 411 kts | 328° |
| 2026-04-22 16:16 | 45.36970 | 75.92375 | 37802 ft | 412 kts | 328° |
| 2026-04-22 16:17 | 45.42276 | 75.89159 | 37800 ft | 412 kts | 328° |
| 2026-04-22 16:17 | 45.47523 | 75.85973 | 37801 ft | 412 kts | 328° |
| 2026-04-22 16:18 | 45.52809 | 75.82755 | 37804 ft | 413 kts | 328° |
| 2026-04-22 16:18 | 45.58098 | 75.79530 | 37800 ft | 413 kts | 328° |
| 2026-04-22 16:19 | 45.63384 | 75.76300 | 37806 ft | 413 kts | 328° |
| 2026-04-22 16:19 | 45.68673 | 75.73061 | 37805 ft | 413 kts | 328° |
| 2026-04-22 16:20 | 45.73963 | 75.69817 | 37811 ft | 414 kts | 328° |
| 2026-04-22 16:20 | 45.79222 | 75.66584 | 37811 ft | 414 kts | 328° |
| 2026-04-22 16:21 | 45.84508 | 75.63329 | 37814 ft | 414 kts | 328° |
| 2026-04-22 16:21 | 45.89800 | 75.60065 | 37810 ft | 414 kts | 328° |
| 2026-04-22 16:22 | 45.97743 | 75.55152 | 37809 ft | 414 kts | 328° |
| 2026-04-22 16:23 | 46.05678 | 75.50228 | 37809 ft | 414 kts | 328° |
| 2026-04-22 16:23 | 46.10964 | 75.46940 | 37804 ft | 414 kts | 328° |
| 2026-04-22 16:24 | 46.18911 | 75.41983 | 37802 ft | 415 kts | 328° |
| 2026-04-22 16:25 | 46.24173 | 75.38696 | 37806 ft | 415 kts | 329° |
| 2026-04-22 16:25 | 46.32146 | 75.33744 | 37803 ft | 416 kts | 329° |
| 2026-04-22 16:26 | 46.37468 | 75.30430 | 37804 ft | 416 kts | 329° |
| 2026-04-22 16:26 | 46.42792 | 75.27105 | 37801 ft | 417 kts | 329° |
| 2026-04-22 16:27 | 46.48121 | 75.23769 | 37808 ft | 417 kts | 329° |
| 2026-04-22 16:27 | 46.52552 | 75.20990 | 37813 ft | 418 kts | 329° |
| 2026-04-22 16:28 | 46.58761 | 75.17087 | 37808 ft | 418 kts | 329° |
| 2026-04-22 16:28 | 46.64106 | 75.13721 | 37809 ft | 419 kts | 329° |
| 2026-04-22 16:29 | 46.69459 | 75.10341 | 37814 ft | 419 kts | 329° |
| 2026-04-22 16:29 | 46.74813 | 75.06954 | 37805 ft | 419 kts | 329° |
| 2026-04-22 16:30 | 46.80170 | 75.03557 | 37809 ft | 420 kts | 329° |
| 2026-04-22 16:30 | 46.85495 | 75.00173 | 37808 ft | 420 kts | 329° |
| 2026-04-22 16:31 | 46.90887 | 74.96827 | 37811 ft | 423 kts | 332° |
| 2026-04-22 16:31 | 46.96422 | 74.93844 | 37813 ft | 424 kts | 333° |
| 2026-04-22 16:32 | 47.01961 | 74.90854 | 37815 ft | 424 kts | 333° |
| 2026-04-22 16:32 | 47.07497 | 74.87809 | 37814 ft | 424 kts | 332° |
| 2026-04-22 16:33 | 47.12091 | 74.85265 | 37814 ft | 424 kts | 332° |
| 2026-04-22 16:33 | 47.17622 | 74.82195 | 37817 ft | 424 kts | 332° |
| 2026-04-22 16:34 | 47.24049 | 74.78620 | 37818 ft | 425 kts | 333° |
| 2026-04-22 16:34 | 47.28686 | 74.76035 | 37819 ft | 424 kts | 333° |
| 2026-04-22 16:35 | 47.34172 | 74.72972 | 37820 ft | 424 kts | 333° |
| 2026-04-22 16:35 | 47.39695 | 74.69880 | 37822 ft | 424 kts | 333° |
| 2026-04-22 16:36 | 47.45225 | 74.66777 | 37820 ft | 424 kts | 333° |
| 2026-04-22 16:36 | 47.50745 | 74.63673 | 37824 ft | 424 kts | 333° |
| 2026-04-22 16:37 | 47.56272 | 74.60562 | 37823 ft | 424 kts | 333° |
| 2026-04-22 16:37 | 47.61760 | 74.57491 | 37813 ft | 424 kts | 333° |
| 2026-04-22 16:38 | 47.67281 | 74.54395 | 37820 ft | 424 kts | 333° |
| 2026-04-22 16:38 | 47.72807 | 74.51286 | 37816 ft | 424 kts | 333° |
| 2026-04-22 16:39 | 47.78325 | 74.48174 | 37814 ft | 424 kts | 333° |
| 2026-04-22 16:39 | 47.83846 | 74.45053 | 37814 ft | 424 kts | 333° |
| 2026-04-22 16:40 | 47.89372 | 74.41922 | 37814 ft | 425 kts | 333° |
| 2026-04-22 16:41 | 47.97626 | 74.37232 | 37815 ft | 425 kts | 333° |
| 2026-04-22 16:41 | 48.03151 | 74.34085 | 37830 ft | 425 kts | 333° |
| 2026-04-22 16:42 | 48.08681 | 74.30926 | 37828 ft | 425 kts | 333° |
| 2026-04-22 16:42 | 48.14208 | 74.27763 | 37829 ft | 425 kts | 333° |
| 2026-04-22 16:43 | 48.19708 | 74.24649 | 37832 ft | 425 kts | 333° |
| 2026-04-22 16:43 | 48.25248 | 74.21517 | 37831 ft | 425 kts | 334° |
| 2026-04-22 16:44 | 48.30795 | 74.18368 | 37827 ft | 425 kts | 333° |
| 2026-04-22 16:44 | 48.36342 | 74.15209 | 37832 ft | 426 kts | 334° |
| 2026-04-22 16:45 | 48.41884 | 74.12046 | 37830 ft | 426 kts | 334° |
| 2026-04-22 16:45 | 48.47388 | 74.08897 | 37831 ft | 426 kts | 334° |
| 2026-04-22 16:46 | 48.52924 | 74.05723 | 37825 ft | 425 kts | 334° |
| 2026-04-22 16:46 | 48.58463 | 74.02539 | 37820 ft | 425 kts | 334° |
| 2026-04-22 16:47 | 48.64010 | 73.99343 | 37819 ft | 425 kts | 334° |
| 2026-04-22 16:47 | 48.69537 | 73.96152 | 37814 ft | 425 kts | 334° |
| 2026-04-22 16:48 | 48.75022 | 73.92977 | 37809 ft | 425 kts | 334° |
| 2026-04-22 16:48 | 48.80556 | 73.89766 | 37803 ft | 425 kts | 334° |
| 2026-04-22 16:49 | 48.86088 | 73.86550 | 37797 ft | 425 kts | 334° |
| 2026-04-22 16:49 | 48.91621 | 73.83324 | 37793 ft | 425 kts | 334° |
| 2026-04-22 16:50 | 48.97142 | 73.80099 | 37788 ft | 425 kts | 334° |
| 2026-04-22 16:50 | 49.02677 | 73.76850 | 37783 ft | 425 kts | 334° |
| 2026-04-22 16:51 | 49.08197 | 73.73593 | 37780 ft | 426 kts | 334° |
| 2026-04-22 16:51 | 49.13722 | 73.70326 | 37774 ft | 426 kts | 334° |
| 2026-04-22 16:52 | 49.19249 | 73.67051 | 37773 ft | 426 kts | 334° |
| 2026-04-22 16:52 | 49.24744 | 73.63787 | 37767 ft | 426 kts | 334° |
| 2026-04-22 16:53 | 49.30270 | 73.60498 | 37768 ft | 426 kts | 334° |
| 2026-04-22 16:53 | 49.35804 | 73.57195 | 37763 ft | 427 kts | 334° |
| 2026-04-22 16:54 | 49.41343 | 73.53882 | 37766 ft | 427 kts | 334° |
| 2026-04-22 16:54 | 49.46882 | 73.50560 | 37764 ft | 427 kts | 334° |
| 2026-04-22 16:55 | 49.52423 | 73.47229 | 37770 ft | 428 kts | 334° |
| 2026-04-22 16:55 | 49.57972 | 73.43883 | 37778 ft | 428 kts | 333° |
| 2026-04-22 16:55 | 49.60582 | 73.41760 | 37776 ft | 420 kts | 320° |
| 2026-04-22 16:56 | 49.62762 | 73.38829 | 37777 ft | 413 kts | 308° |
| 2026-04-22 16:56 | 49.66078 | 73.31654 | 37768 ft | 411 kts | 302° |
| 2026-04-22 16:57 | 49.69471 | 73.24605 | 37776 ft | 412 kts | 306° |
| 2026-04-22 16:57 | 49.73127 | 73.17753 | 37599 ft | 414 kts | 307° |
| 2026-04-22 16:57 | 49.74984 | 73.14349 | 37326 ft | 413 kts | 307° |
| 2026-04-22 16:58 | 49.76214 | 73.12097 | 37143 ft | 413 kts | 307° |
| 2026-04-22 16:58 | 49.78699 | 73.07537 | 36783 ft | 415 kts | 307° |
| 2026-04-22 16:58 | 49.80559 | 73.04115 | 36513 ft | 416 kts | 307° |
| 2026-04-22 16:58 | 49.82401 | 73.00718 | 36256 ft | 417 kts | 307° |
| 2026-04-22 16:59 | 49.84264 | 72.97280 | 35992 ft | 417 kts | 307° |
| 2026-04-22 16:59 | 49.86134 | 72.93819 | 35521 ft | 420 kts | 307° |
| 2026-04-22 16:59 | 49.88023 | 72.90317 | 34689 ft | 426 kts | 307° |
| 2026-04-22 16:59 | 49.89935 | 72.86769 | 33922 ft | 429 kts | 307° |
| 2026-04-22 17:00 | 49.91856 | 72.83195 | 33030 ft | 432 kts | 308° |
| 2026-04-22 17:00 | 49.95686 | 72.76063 | 31544 ft | 429 kts | 308° |
| 2026-04-22 17:00 | 49.97602 | 72.72488 | 30736 ft | 430 kts | 308° |
| 2026-04-22 17:01 | 49.99495 | 72.68953 | 29879 ft | 433 kts | 308° |
| 2026-04-22 17:01 | 50.01412 | 72.65370 | 29193 ft | 429 kts | 308° |
| 2026-04-22 17:01 | 50.03299 | 72.61840 | 28795 ft | 419 kts | 308° |
| 2026-04-22 17:01 | 50.05155 | 72.58364 | 28282 ft | 415 kts | 308° |
| 2026-04-22 17:02 | 50.06992 | 72.54917 | 27685 ft | 410 kts | 308° |
| 2026-04-22 17:02 | 50.08800 | 72.51520 | 27137 ft | 405 kts | 308° |
| 2026-04-22 17:02 | 50.10590 | 72.48154 | 26572 ft | 401 kts | 308° |
| 2026-04-22 17:02 | 50.12357 | 72.44825 | 26028 ft | 396 kts | 308° |
| 2026-04-22 17:03 | 50.14107 | 72.41524 | 25481 ft | 393 kts | 308° |
| 2026-04-22 17:03 | 50.15840 | 72.38250 | 24917 ft | 389 kts | 308° |
| 2026-04-22 17:03 | 50.17529 | 72.35054 | 24393 ft | 386 kts | 308° |
| 2026-04-22 17:03 | 50.19235 | 72.31822 | 23844 ft | 383 kts | 308° |
| 2026-04-22 17:04 | 50.20924 | 72.28618 | 23269 ft | 381 kts | 307° |
| 2026-04-22 17:04 | 50.22599 | 72.25438 | 22706 ft | 376 kts | 307° |
| 2026-04-22 17:04 | 50.24208 | 72.22243 | 22139 ft | 372 kts | 306° |
| 2026-04-22 17:04 | 50.25768 | 72.19035 | 21597 ft | 368 kts | 305° |
| 2026-04-22 17:05 | 50.27303 | 72.15859 | 21046 ft | 364 kts | 305° |
| 2026-04-22 17:05 | 50.28824 | 72.12724 | 20515 ft | 361 kts | 306° |
| 2026-04-22 17:05 | 50.30340 | 72.09608 | 19977 ft | 358 kts | 306° |
| 2026-04-22 17:05 | 50.31847 | 72.06519 | 19446 ft | 356 kts | 306° |
| 2026-04-22 17:06 | 50.33343 | 72.03452 | 18893 ft | 354 kts | 306° |
| 2026-04-22 17:06 | 50.34814 | 72.00436 | 18345 ft | 353 kts | 306° |
| 2026-04-22 17:06 | 50.36301 | 71.97385 | 17771 ft | 352 kts | 306° |
| 2026-04-22 17:06 | 50.37776 | 71.94356 | 17256 ft | 348 kts | 306° |
| 2026-04-22 17:07 | 50.39238 | 71.91350 | 16720 ft | 345 kts | 305° |
| 2026-04-22 17:07 | 50.40689 | 71.88363 | 16186 ft | 342 kts | 305° |
| 2026-04-22 17:07 | 50.42126 | 71.85402 | 15693 ft | 339 kts | 305° |
| 2026-04-22 17:07 | 50.43579 | 71.82401 | 15402 ft | 354 kts | 305° |
| 2026-04-22 17:08 | 50.45097 | 71.79255 | 14931 ft | 366 kts | 305° |
| 2026-04-22 17:08 | 50.46625 | 71.76096 | 14829 ft | 358 kts | 305° |
| 2026-04-22 17:08 | 50.48106 | 71.73034 | 14706 ft | 346 kts | 305° |
| 2026-04-22 17:08 | 50.49546 | 71.70052 | 14274 ft | 341 kts | 305° |
| 2026-04-22 17:09 | 50.50959 | 71.67117 | 13755 ft | 340 kts | 305° |
| 2026-04-22 17:09 | 50.52383 | 71.64156 | 13212 ft | 339 kts | 305° |
| 2026-04-22 17:09 | 50.53324 | 71.62195 | 12833 ft | 337 kts | 305° |
| 2026-04-22 17:09 | 50.55209 | 71.58265 | 12104 ft | 335 kts | 305° |
| 2026-04-22 17:10 | 50.56605 | 71.55350 | 11554 ft | 333 kts | 305° |
| 2026-04-22 17:10 | 50.57999 | 71.52438 | 11034 ft | 332 kts | 305° |
| 2026-04-22 17:10 | 50.59361 | 71.49594 | 10866 ft | 319 kts | 306° |
| 2026-04-22 17:10 | 50.60667 | 71.46863 | 10741 ft | 305 kts | 306° |
| 2026-04-22 17:11 | 50.61920 | 71.44238 | 10511 ft | 296 kts | 306° |
| 2026-04-22 17:11 | 50.63158 | 71.41641 | 10102 ft | 295 kts | 306° |
| 2026-04-22 17:11 | 50.64374 | 71.39085 | 9703 ft | 294 kts | 306° |
| 2026-04-22 17:11 | 50.65599 | 71.36505 | 9257 ft | 293 kts | 306° |
| 2026-04-22 17:12 | 50.66870 | 71.34014 | 8907 ft | 289 kts | 314° |
| 2026-04-22 17:12 | 50.68414 | 71.32032 | 8544 ft | 286 kts | 327° |
| 2026-04-22 17:12 | 50.70163 | 71.30563 | 8130 ft | 284 kts | 332° |
| 2026-04-22 17:12 | 50.71919 | 71.29143 | 7720 ft | 283 kts | 332° |
| 2026-04-22 17:13 | 50.73663 | 71.27719 | 7317 ft | 282 kts | 332° |
| 2026-04-22 17:13 | 50.75400 | 71.26293 | 6936 ft | 280 kts | 332° |
| 2026-04-22 17:13 | 50.77103 | 71.24893 | 6549 ft | 279 kts | 332° |
| 2026-04-22 17:13 | 50.78824 | 71.23478 | 6176 ft | 278 kts | 332° |
| 2026-04-22 17:14 | 50.80526 | 71.22079 | 5914 ft | 270 kts | 332° |
| 2026-04-22 17:14 | 50.82159 | 71.20761 | 5773 ft | 256 kts | 337° |
| 2026-04-22 17:14 | 50.83850 | 71.20291 | 5564 ft | 243 kts | 7° |
| 2026-04-22 17:14 | 50.85431 | 71.21127 | 5262 ft | 243 kts | 31° |
| 2026-04-22 17:15 | 50.86359 | 71.22120 | 5057 ft | 244 kts | 39° |
| 2026-04-22 17:15 | 50.88040 | 71.24515 | 4641 ft | 241 kts | 45° |
| 2026-04-22 17:15 | 50.89227 | 71.26366 | 4317 ft | 236 kts | 45° |
| 2026-04-22 17:15 | 50.90385 | 71.28160 | 4003 ft | 229 kts | 45° |
| 2026-04-22 17:16 | 50.91505 | 71.29898 | 3704 ft | 221 kts | 45° |
| 2026-04-22 17:16 | 50.92583 | 71.31572 | 3438 ft | 212 kts | 45° |
| 2026-04-22 17:16 | 50.93576 | 71.33114 | 3169 ft | 190 kts | 45° |
| 2026-04-22 17:16 | 50.94463 | 71.34494 | 2926 ft | 172 kts | 45° |
| 2026-04-22 17:17 | 50.95277 | 71.35760 | 2714 ft | 155 kts | 45° |
| 2026-04-22 17:17 | 50.96017 | 71.36910 | 2501 ft | 142 kts | 45° |
| 2026-04-22 17:17 | 50.96714 | 71.37996 | 2326 ft | 143 kts | 45° |
| 2026-04-22 17:17 | 50.97425 | 71.39103 | 2134 ft | 142 kts | 44° |
| 2026-04-22 17:18 | 50.98125 | 71.40193 | 1971 ft | 140 kts | 44° |
| 2026-04-22 17:18 | 50.98816 | 71.41259 | 1795 ft | 136 kts | 44° |
| 2026-04-22 17:18 | 50.99493 | 71.42297 | 1647 ft | 134 kts | 46° |
| 2026-04-22 17:18 | 51.00157 | 71.43338 | 1471 ft | 133 kts | 46° |
| 2026-04-22 17:19 | 51.01470 | 71.45388 | 1175 ft | 126 kts | 47° |
| 2026-04-22 17:19 | 51.02228 | 71.46578 | 1169 ft | 32 kts | 45° |
| 2026-04-22 17:20 | 51.02440 | 71.46908 | 1169 ft | 0 kts | 43° |
| 2026-04-22 17:20 | 51.02516 | 71.46926 | 1170 ft | 12 kts | 317° |
| 2026-04-22 17:21 | 51.02536 | 71.46893 | 1171 ft | 8 kts | 313° |
| 2026-04-22 17:21 | 51.02610 | 71.46724 | 1170 ft | 9 kts | 251° |
| 2026-04-22 17:22 | 51.02493 | 71.46529 | 1167 ft | 13 kts | 224° |
| 2026-04-22 17:22 | 51.02437 | 71.46442 | 1170 ft | 12 kts | 224° |
| 2026-04-22 17:22 | 51.02364 | 71.46329 | 1170 ft | 6 kts | 224° |
| 2026-04-22 17:23 | 51.02345 | 71.46255 | 1168 ft | 4 kts | 292° |
| 2026-04-22 17:23 | 51.02388 | 71.46177 | 1167 ft | 1 kts | 313° |
| 2026-04-22 17:23 | 51.02402 | 71.46154 | 1170 ft | 5 kts | 313° |
| 2026-04-22 17:24 | 51.02435 | 71.46099 | 1169 ft | 9 kts | 315° |
| 2026-04-22 17:24 | 51.02477 | 71.46033 | 1169 ft | 9 kts | 315° |
| 2026-04-22 17:24 | 51.02522 | 71.45962 | 1169 ft | 7 kts | 315° |
| 2026-04-22 17:24 | 51.02553 | 71.45938 | 1168 ft | 5 kts | 5° |
| 2026-04-22 17:25 | 51.02587 | 71.45961 | 1168 ft | 0 kts | 24° |
| 2026-04-22 17:25 | 51.02602 | 71.45972 | 1169 ft | 4 kts | 26° |
| 2026-04-22 17:25 | 51.02620 | 71.45987 | 1166 ft | 3 kts | 26° |
| 2026-04-22 17:25 | 51.02630 | 71.45994 | 1167 ft | 1 kts | 26° |
| 2026-04-22 17:26 | 51.02634 | 71.45997 | 1166 ft | 1 kts | 26° |
| 2026-04-22 17:26 | 51.02635 | 71.45998 | 1166 ft | 0 kts | 26° |